sensor_id;sensor_type;location;lat;lon;timestamp;P1;durP1;ratioP1;P2;durP2;ratioP2
24745;SDS011;12845;52.042;6.838;2022-10-31T00:01:17;25.80;;;17.85;;
24745;SDS011;12845;52.042;6.838;2022-10-31T00:03:43;29.15;;;15.50;;
24745;SDS011;12845;52.042;6.838;2022-10-31T00:06:08;25.98;;;16.50;;
24745;SDS011;12845;52.042;6.838;2022-10-31T00:08:34;28.90;;;17.48;;
24745;SDS011;12845;52.042;6.838;2022-10-31T00:10:59;30.13;;;18.05;;
24745;SDS011;12845;52.042;6.838;2022-10-31T00:13:25;28.83;;;17.67;;
24745;SDS011;12845;52.042;6.838;2022-10-31T00:15:50;34.05;;;17.98;;
24745;SDS011;12845;52.042;6.838;2022-10-31T00:18:15;27.17;;;17.40;;
24745;SDS011;12845;52.042;6.838;2022-10-31T00:20:41;30.57;;;18.63;;
24745;SDS011;12845;52.042;6.838;2022-10-31T00:23:06;27.42;;;18.05;;
24745;SDS011;12845;52.042;6.838;2022-10-31T00:25:36;27.45;;;18.35;;
24745;SDS011;12845;52.042;6.838;2022-10-31T00:28:02;31.10;;;19.10;;
24745;SDS011;12845;52.042;6.838;2022-10-31T00:30:28;32.55;;;19.83;;
24745;SDS011;12845;52.042;6.838;2022-10-31T00:32:53;33.50;;;21.85;;
24745;SDS011;12845;52.042;6.838;2022-10-31T00:35:18;34.35;;;21.58;;
24745;SDS011;12845;52.042;6.838;2022-10-31T00:37:44;33.83;;;20.52;;
24745;SDS011;12845;52.042;6.838;2022-10-31T00:40:09;35.70;;;21.42;;
24745;SDS011;12845;52.042;6.838;2022-10-31T00:42:35;30.48;;;19.50;;
24745;SDS011;12845;52.042;6.838;2022-10-31T00:45:01;31.65;;;20.75;;
24745;SDS011;12845;52.042;6.838;2022-10-31T00:47:26;32.50;;;21.02;;
24745;SDS011;12845;52.042;6.838;2022-10-31T00:49:51;36.33;;;20.33;;
24745;SDS011;12845;52.042;6.838;2022-10-31T00:52:16;32.30;;;19.50;;
24745;SDS011;12845;52.042;6.838;2022-10-31T00:54:42;31.50;;;17.37;;
24745;SDS011;12845;52.042;6.838;2022-10-31T00:57:07;33.97;;;20.73;;
24745;SDS011;12845;52.042;6.838;2022-10-31T00:59:32;26.60;;;17.93;;
24745;SDS011;12845;52.042;6.838;2022-10-31T01:01:57;30.33;;;19.10;;
24745;SDS011;12845;52.042;6.838;2022-10-31T01:04:23;29.13;;;17.13;;
24745;SDS011;12845;52.042;6.838;2022-10-31T01:06:48;29.90;;;19.50;;
24745;SDS011;12845;52.042;6.838;2022-10-31T01:09:13;32.17;;;17.42;;
24745;SDS011;12845;52.042;6.838;2022-10-31T01:11:39;28.35;;;17.73;;
24745;SDS011;12845;52.042;6.838;2022-10-31T01:14:04;27.50;;;16.25;;
24745;SDS011;12845;52.042;6.838;2022-10-31T01:16:29;26.38;;;15.90;;
24745;SDS011;12845;52.042;6.838;2022-10-31T01:18:55;27.40;;;15.95;;
24745;SDS011;12845;52.042;6.838;2022-10-31T01:21:21;31.08;;;16.45;;
24745;SDS011;12845;52.042;6.838;2022-10-31T01:23:49;25.23;;;15.68;;
24745;SDS011;12845;52.042;6.838;2022-10-31T01:26:16;27.92;;;16.55;;
24745;SDS011;12845;52.042;6.838;2022-10-31T01:28:48;23.25;;;15.73;;
24745;SDS011;12845;52.042;6.838;2022-10-31T01:31:14;25.10;;;16.08;;
24745;SDS011;12845;52.042;6.838;2022-10-31T01:33:40;26.15;;;15.68;;
24745;SDS011;12845;52.042;6.838;2022-10-31T01:36:12;26.05;;;15.60;;
24745;SDS011;12845;52.042;6.838;2022-10-31T01:38:44;25.35;;;18.35;;
24745;SDS011;12845;52.042;6.838;2022-10-31T01:41:10;25.70;;;15.73;;
24745;SDS011;12845;52.042;6.838;2022-10-31T01:46:15;25.40;;;17.15;;
24745;SDS011;12845;52.042;6.838;2022-10-31T01:48:45;25.33;;;17.67;;
24745;SDS011;12845;52.042;6.838;2022-10-31T01:51:11;31.77;;;19.27;;
24745;SDS011;12845;52.042;6.838;2022-10-31T01:53:39;29.50;;;17.85;;
24745;SDS011;12845;52.042;6.838;2022-10-31T01:56:05;32.05;;;18.45;;
24745;SDS011;12845;52.042;6.838;2022-10-31T01:58:32;31.33;;;20.00;;
24745;SDS011;12845;52.042;6.838;2022-10-31T02:00:58;32.15;;;20.33;;
24745;SDS011;12845;52.042;6.838;2022-10-31T02:03:26;31.95;;;19.63;;
24745;SDS011;12845;52.042;6.838;2022-10-31T02:05:54;36.47;;;21.02;;
24745;SDS011;12845;52.042;6.838;2022-10-31T02:08:27;31.42;;;18.90;;
24745;SDS011;12845;52.042;6.838;2022-10-31T02:10:56;39.78;;;21.95;;
24745;SDS011;12845;52.042;6.838;2022-10-31T02:13:23;33.60;;;22.00;;
24745;SDS011;12845;52.042;6.838;2022-10-31T02:15:51;38.00;;;21.95;;
24745;SDS011;12845;52.042;6.838;2022-10-31T02:18:19;35.95;;;21.70;;
24745;SDS011;12845;52.042;6.838;2022-10-31T02:33:59;33.42;;;21.13;;
24745;SDS011;12845;52.042;6.838;2022-10-31T02:49:10;37.63;;;23.63;;
24745;SDS011;12845;52.042;6.838;2022-10-31T02:51:37;39.83;;;21.88;;
24745;SDS011;12845;52.042;6.838;2022-10-31T02:54:03;34.88;;;20.90;;
24745;SDS011;12845;52.042;6.838;2022-10-31T02:56:28;32.60;;;21.20;;
24745;SDS011;12845;52.042;6.838;2022-10-31T02:58:55;36.08;;;21.38;;
24745;SDS011;12845;52.042;6.838;2022-10-31T03:01:28;36.80;;;21.98;;
24745;SDS011;12845;52.042;6.838;2022-10-31T03:15:19;40.72;;;23.88;;
24745;SDS011;12845;52.042;6.838;2022-10-31T03:20:45;36.45;;;22.48;;
24745;SDS011;12845;52.042;6.838;2022-10-31T03:23:13;34.40;;;22.33;;
24745;SDS011;12845;52.042;6.838;2022-10-31T03:25:39;34.38;;;22.30;;
24745;SDS011;12845;52.042;6.838;2022-10-31T03:28:07;31.83;;;21.50;;
24745;SDS011;12845;52.042;6.838;2022-10-31T03:30:36;35.72;;;22.80;;
24745;SDS011;12845;52.042;6.838;2022-10-31T03:33:03;33.20;;;21.55;;
24745;SDS011;12845;52.042;6.838;2022-10-31T03:35:34;37.83;;;22.48;;
24745;SDS011;12845;52.042;6.838;2022-10-31T03:38:01;33.88;;;22.08;;
24745;SDS011;12845;52.042;6.838;2022-10-31T03:40:27;35.13;;;23.02;;
24745;SDS011;12845;52.042;6.838;2022-10-31T03:43:03;39.78;;;24.58;;
24745;SDS011;12845;52.042;6.838;2022-10-31T03:45:35;36.83;;;22.63;;
24745;SDS011;12845;52.042;6.838;2022-10-31T03:48:04;39.47;;;24.42;;
24745;SDS011;12845;52.042;6.838;2022-10-31T03:50:33;40.83;;;27.08;;
24745;SDS011;12845;52.042;6.838;2022-10-31T03:53:23;38.33;;;24.58;;
24745;SDS011;12845;52.042;6.838;2022-10-31T03:56:02;36.72;;;22.98;;
24745;SDS011;12845;52.042;6.838;2022-10-31T03:58:29;41.20;;;25.05;;
24745;SDS011;12845;52.042;6.838;2022-10-31T04:00:57;38.00;;;24.70;;
24745;SDS011;12845;52.042;6.838;2022-10-31T04:03:31;39.97;;;24.42;;
24745;SDS011;12845;52.042;6.838;2022-10-31T04:05:59;39.05;;;23.35;;
24745;SDS011;12845;52.042;6.838;2022-10-31T04:08:29;38.72;;;24.98;;
24745;SDS011;12845;52.042;6.838;2022-10-31T04:10:57;37.08;;;23.73;;
24745;SDS011;12845;52.042;6.838;2022-10-31T04:13:26;37.00;;;23.95;;
24745;SDS011;12845;52.042;6.838;2022-10-31T04:15:53;37.33;;;22.23;;
24745;SDS011;12845;52.042;6.838;2022-10-31T04:18:19;34.65;;;22.02;;
24745;SDS011;12845;52.042;6.838;2022-10-31T04:20:45;37.75;;;24.13;;
24745;SDS011;12845;52.042;6.838;2022-10-31T04:23:23;41.17;;;25.00;;
24745;SDS011;12845;52.042;6.838;2022-10-31T04:25:50;37.38;;;24.48;;
24745;SDS011;12845;52.042;6.838;2022-10-31T04:28:15;35.28;;;23.13;;
24745;SDS011;12845;52.042;6.838;2022-10-31T04:30:40;41.53;;;24.83;;
24745;SDS011;12845;52.042;6.838;2022-10-31T04:33:06;41.40;;;24.77;;
24745;SDS011;12845;52.042;6.838;2022-10-31T04:35:31;37.45;;;24.00;;
24745;SDS011;12845;52.042;6.838;2022-10-31T04:37:56;36.78;;;22.38;;
24745;SDS011;12845;52.042;6.838;2022-10-31T04:40:22;35.70;;;23.90;;
24745;SDS011;12845;52.042;6.838;2022-10-31T04:42:47;39.58;;;24.17;;
24745;SDS011;12845;52.042;6.838;2022-10-31T04:45:12;41.20;;;25.37;;
24745;SDS011;12845;52.042;6.838;2022-10-31T04:47:37;36.80;;;23.27;;
24745;SDS011;12845;52.042;6.838;2022-10-31T04:50:03;34.50;;;23.00;;
24745;SDS011;12845;52.042;6.838;2022-10-31T04:52:28;39.72;;;24.15;;
24745;SDS011;12845;52.042;6.838;2022-10-31T04:54:54;38.10;;;24.33;;
24745;SDS011;12845;52.042;6.838;2022-10-31T04:57:19;39.65;;;24.10;;
24745;SDS011;12845;52.042;6.838;2022-10-31T04:59:44;37.75;;;24.45;;
24745;SDS011;12845;52.042;6.838;2022-10-31T05:02:09;42.07;;;23.93;;
24745;SDS011;12845;52.042;6.838;2022-10-31T05:04:35;41.53;;;24.00;;
24745;SDS011;12845;52.042;6.838;2022-10-31T05:07:00;40.50;;;24.27;;
24745;SDS011;12845;52.042;6.838;2022-10-31T05:09:25;36.67;;;23.47;;
24745;SDS011;12845;52.042;6.838;2022-10-31T05:11:51;39.83;;;23.63;;
24745;SDS011;12845;52.042;6.838;2022-10-31T05:14:16;35.33;;;22.95;;
24745;SDS011;12845;52.042;6.838;2022-10-31T05:16:41;36.67;;;23.25;;
24745;SDS011;12845;52.042;6.838;2022-10-31T05:19:07;37.60;;;24.83;;
24745;SDS011;12845;52.042;6.838;2022-10-31T05:21:32;40.13;;;24.83;;
24745;SDS011;12845;52.042;6.838;2022-10-31T05:23:57;35.65;;;23.08;;
24745;SDS011;12845;52.042;6.838;2022-10-31T05:26:23;42.20;;;25.77;;
24745;SDS011;12845;52.042;6.838;2022-10-31T05:28:48;38.70;;;24.65;;
24745;SDS011;12845;52.042;6.838;2022-10-31T05:31:13;40.10;;;22.48;;
24745;SDS011;12845;52.042;6.838;2022-10-31T05:33:38;43.67;;;26.48;;
24745;SDS011;12845;52.042;6.838;2022-10-31T05:36:04;40.30;;;25.73;;
24745;SDS011;12845;52.042;6.838;2022-10-31T05:38:29;42.97;;;25.65;;
24745;SDS011;12845;52.042;6.838;2022-10-31T05:40:55;37.63;;;24.48;;
24745;SDS011;12845;52.042;6.838;2022-10-31T05:43:25;39.53;;;26.27;;
24745;SDS011;12845;52.042;6.838;2022-10-31T05:45:53;42.25;;;23.23;;
24745;SDS011;12845;52.042;6.838;2022-10-31T05:48:19;41.63;;;24.88;;
24745;SDS011;12845;52.042;6.838;2022-10-31T05:50:44;41.78;;;25.17;;
24745;SDS011;12845;52.042;6.838;2022-10-31T05:53:09;33.50;;;23.63;;
24745;SDS011;12845;52.042;6.838;2022-10-31T05:55:35;37.50;;;26.58;;
24745;SDS011;12845;52.042;6.838;2022-10-31T05:58:00;37.03;;;23.70;;
24745;SDS011;12845;52.042;6.838;2022-10-31T06:00:25;37.35;;;24.00;;
24745;SDS011;12845;52.042;6.838;2022-10-31T06:03:01;36.33;;;23.90;;
24745;SDS011;12845;52.042;6.838;2022-10-31T06:05:28;33.85;;;22.80;;
24745;SDS011;12845;52.042;6.838;2022-10-31T06:07:53;37.38;;;24.38;;
24745;SDS011;12845;52.042;6.838;2022-10-31T06:10:19;41.65;;;26.60;;
24745;SDS011;12845;52.042;6.838;2022-10-31T06:12:45;31.42;;;22.23;;
24745;SDS011;12845;52.042;6.838;2022-10-31T06:15:11;38.35;;;25.52;;
24745;SDS011;12845;52.042;6.838;2022-10-31T06:17:37;34.92;;;23.30;;
24745;SDS011;12845;52.042;6.838;2022-10-31T06:20:02;38.65;;;24.45;;
24745;SDS011;12845;52.042;6.838;2022-10-31T06:22:28;37.85;;;25.90;;
24745;SDS011;12845;52.042;6.838;2022-10-31T06:24:53;38.33;;;25.08;;
24745;SDS011;12845;52.042;6.838;2022-10-31T06:27:19;33.97;;;23.08;;
24745;SDS011;12845;52.042;6.838;2022-10-31T06:29:44;40.13;;;27.23;;
24745;SDS011;12845;52.042;6.838;2022-10-31T06:32:11;40.90;;;26.45;;
24745;SDS011;12845;52.042;6.838;2022-10-31T06:34:37;39.00;;;25.88;;
24745;SDS011;12845;52.042;6.838;2022-10-31T06:37:02;36.40;;;25.27;;
24745;SDS011;12845;52.042;6.838;2022-10-31T06:39:28;40.95;;;26.13;;
24745;SDS011;12845;52.042;6.838;2022-10-31T06:41:53;40.38;;;26.42;;
24745;SDS011;12845;52.042;6.838;2022-10-31T06:44:18;46.60;;;27.15;;
24745;SDS011;12845;52.042;6.838;2022-10-31T06:46:45;36.13;;;24.42;;
24745;SDS011;12845;52.042;6.838;2022-10-31T06:49:12;47.03;;;28.52;;
24745;SDS011;12845;52.042;6.838;2022-10-31T06:51:37;42.35;;;26.48;;
24745;SDS011;12845;52.042;6.838;2022-10-31T06:54:02;38.33;;;26.17;;
24745;SDS011;12845;52.042;6.838;2022-10-31T06:56:28;50.63;;;29.23;;
24745;SDS011;12845;52.042;6.838;2022-10-31T06:58:53;46.47;;;28.70;;
24745;SDS011;12845;52.042;6.838;2022-10-31T07:01:18;46.80;;;28.73;;
24745;SDS011;12845;52.042;6.838;2022-10-31T07:03:44;42.67;;;28.23;;
24745;SDS011;12845;52.042;6.838;2022-10-31T07:06:09;42.78;;;28.63;;
24745;SDS011;12845;52.042;6.838;2022-10-31T07:08:34;49.88;;;27.65;;
24745;SDS011;12845;52.042;6.838;2022-10-31T07:10:59;48.33;;;27.60;;
24745;SDS011;12845;52.042;6.838;2022-10-31T07:13:25;41.20;;;27.50;;
24745;SDS011;12845;52.042;6.838;2022-10-31T07:15:51;42.83;;;26.80;;
24745;SDS011;12845;52.042;6.838;2022-10-31T07:18:18;41.65;;;26.50;;
24745;SDS011;12845;52.042;6.838;2022-10-31T07:20:43;41.50;;;26.58;;
24745;SDS011;12845;52.042;6.838;2022-10-31T07:23:09;43.17;;;26.58;;
24745;SDS011;12845;52.042;6.838;2022-10-31T07:25:35;45.13;;;27.88;;
24745;SDS011;12845;52.042;6.838;2022-10-31T07:28:00;46.38;;;27.48;;
24745;SDS011;12845;52.042;6.838;2022-10-31T07:30:26;47.05;;;26.77;;
24745;SDS011;12845;52.042;6.838;2022-10-31T07:32:51;41.67;;;27.00;;
24745;SDS011;12845;52.042;6.838;2022-10-31T07:35:17;48.10;;;29.30;;
24745;SDS011;12845;52.042;6.838;2022-10-31T07:37:47;46.65;;;28.75;;
24745;SDS011;12845;52.042;6.838;2022-10-31T07:40:13;47.25;;;29.05;;
24745;SDS011;12845;52.042;6.838;2022-10-31T07:42:40;41.40;;;28.10;;
24745;SDS011;12845;52.042;6.838;2022-10-31T07:45:08;43.88;;;28.25;;
24745;SDS011;12845;52.042;6.838;2022-10-31T07:47:46;47.95;;;28.98;;
24745;SDS011;12845;52.042;6.838;2022-10-31T07:50:14;44.40;;;27.73;;
24745;SDS011;12845;52.042;6.838;2022-10-31T07:52:41;52.00;;;29.42;;
24745;SDS011;12845;52.042;6.838;2022-10-31T07:55:06;44.70;;;28.33;;
24745;SDS011;12845;52.042;6.838;2022-10-31T07:57:32;46.45;;;30.60;;
24745;SDS011;12845;52.042;6.838;2022-10-31T07:59:58;45.22;;;29.98;;
24745;SDS011;12845;52.042;6.838;2022-10-31T08:02:23;53.08;;;32.45;;
24745;SDS011;12845;52.042;6.838;2022-10-31T08:04:49;52.53;;;33.72;;
24745;SDS011;12845;52.042;6.838;2022-10-31T08:07:15;57.60;;;35.70;;
24745;SDS011;12845;52.042;6.838;2022-10-31T08:09:40;63.63;;;38.30;;
24745;SDS011;12845;52.042;6.838;2022-10-31T08:12:06;53.00;;;34.55;;
24745;SDS011;12845;52.042;6.838;2022-10-31T08:14:31;57.13;;;35.75;;
24745;SDS011;12845;52.042;6.838;2022-10-31T08:16:57;55.80;;;35.22;;
24745;SDS011;12845;52.042;6.838;2022-10-31T08:19:22;60.53;;;40.05;;
24745;SDS011;12845;52.042;6.838;2022-10-31T08:21:51;65.13;;;40.13;;
24745;SDS011;12845;52.042;6.838;2022-10-31T08:24:17;68.30;;;38.78;;
24745;SDS011;12845;52.042;6.838;2022-10-31T08:26:43;66.57;;;41.03;;
24745;SDS011;12845;52.042;6.838;2022-10-31T08:29:09;65.63;;;40.45;;
24745;SDS011;12845;52.042;6.838;2022-10-31T08:31:34;68.78;;;39.58;;
24745;SDS011;12845;52.042;6.838;2022-10-31T08:33:59;65.10;;;40.58;;
24745;SDS011;12845;52.042;6.838;2022-10-31T08:36:25;72.68;;;39.72;;
24745;SDS011;12845;52.042;6.838;2022-10-31T08:38:50;68.47;;;40.25;;
24745;SDS011;12845;52.042;6.838;2022-10-31T08:41:15;73.82;;;39.45;;
24745;SDS011;12845;52.042;6.838;2022-10-31T08:43:41;66.97;;;38.55;;
24745;SDS011;12845;52.042;6.838;2022-10-31T08:46:06;65.28;;;40.13;;
24745;SDS011;12845;52.042;6.838;2022-10-31T08:48:32;61.08;;;37.33;;
24745;SDS011;12845;52.042;6.838;2022-10-31T08:50:57;62.05;;;37.22;;
24745;SDS011;12845;52.042;6.838;2022-10-31T08:53:23;64.45;;;38.33;;
24745;SDS011;12845;52.042;6.838;2022-10-31T08:55:49;65.03;;;37.40;;
24745;SDS011;12845;52.042;6.838;2022-10-31T08:58:16;57.35;;;38.17;;
24745;SDS011;12845;52.042;6.838;2022-10-31T09:00:43;53.85;;;34.30;;
24745;SDS011;12845;52.042;6.838;2022-10-31T09:03:14;52.03;;;31.50;;
24745;SDS011;12845;52.042;6.838;2022-10-31T09:05:41;45.80;;;30.35;;
24745;SDS011;12845;52.042;6.838;2022-10-31T09:08:06;44.33;;;27.77;;
24745;SDS011;12845;52.042;6.838;2022-10-31T09:10:33;40.58;;;26.67;;
24745;SDS011;12845;52.042;6.838;2022-10-31T09:12:59;40.45;;;25.05;;
24745;SDS011;12845;52.042;6.838;2022-10-31T09:15:32;35.72;;;22.48;;
24745;SDS011;12845;52.042;6.838;2022-10-31T09:17:58;33.88;;;20.35;;
24745;SDS011;12845;52.042;6.838;2022-10-31T09:20:23;30.88;;;19.83;;
24745;SDS011;12845;52.042;6.838;2022-10-31T09:22:55;27.42;;;19.17;;
24745;SDS011;12845;52.042;6.838;2022-10-31T09:25:25;26.85;;;16.70;;
24745;SDS011;12845;52.042;6.838;2022-10-31T09:27:50;28.42;;;16.65;;
24745;SDS011;12845;52.042;6.838;2022-10-31T09:30:16;20.73;;;14.52;;
24745;SDS011;12845;52.042;6.838;2022-10-31T09:32:41;19.70;;;13.65;;
24745;SDS011;12845;52.042;6.838;2022-10-31T09:35:06;19.98;;;12.73;;
24745;SDS011;12845;52.042;6.838;2022-10-31T09:37:32;18.95;;;12.50;;
24745;SDS011;12845;52.042;6.838;2022-10-31T09:39:58;21.20;;;11.55;;
24745;SDS011;12845;52.042;6.838;2022-10-31T09:42:45;14.83;;;9.20;;
24745;SDS011;12845;52.042;6.838;2022-10-31T09:45:37;16.52;;;10.07;;
24745;SDS011;12845;52.042;6.838;2022-10-31T09:51:00;12.80;;;8.02;;
24745;SDS011;12845;52.042;6.838;2022-10-31T09:53:36;8.65;;;6.43;;
24745;SDS011;12845;52.042;6.838;2022-10-31T09:56:04;9.32;;;6.13;;
24745;SDS011;12845;52.042;6.838;2022-10-31T09:58:34;9.65;;;6.00;;
24745;SDS011;12845;52.042;6.838;2022-10-31T10:06:38;10.88;;;6.50;;
24745;SDS011;12845;52.042;6.838;2022-10-31T10:09:09;10.27;;;6.22;;
24745;SDS011;12845;52.042;6.838;2022-10-31T10:25:01;11.95;;;6.45;;
24745;SDS011;12845;52.042;6.838;2022-10-31T10:30:15;12.00;;;7.88;;
24745;SDS011;12845;52.042;6.838;2022-10-31T10:32:42;15.90;;;8.80;;
24745;SDS011;12845;52.042;6.838;2022-10-31T10:35:17;14.35;;;8.85;;
24745;SDS011;12845;52.042;6.838;2022-10-31T10:37:44;12.63;;;8.23;;
24745;SDS011;12845;52.042;6.838;2022-10-31T10:40:19;15.23;;;8.70;;
24745;SDS011;12845;52.042;6.838;2022-10-31T10:43:31;12.38;;;7.80;;
24745;SDS011;12845;52.042;6.838;2022-10-31T10:51:46;14.35;;;8.30;;
24745;SDS011;12845;52.042;6.838;2022-10-31T10:59:49;14.45;;;8.27;;
24745;SDS011;12845;52.042;6.838;2022-10-31T11:02:17;14.07;;;7.95;;
24745;SDS011;12845;52.042;6.838;2022-10-31T11:04:52;17.17;;;9.27;;
24745;SDS011;12845;52.042;6.838;2022-10-31T11:07:18;19.27;;;10.18;;
24745;SDS011;12845;52.042;6.838;2022-10-31T11:09:44;19.40;;;12.00;;
24745;SDS011;12845;52.042;6.838;2022-10-31T11:12:21;20.25;;;11.50;;
24745;SDS011;12845;52.042;6.838;2022-10-31T11:14:53;17.50;;;10.57;;
24745;SDS011;12845;52.042;6.838;2022-10-31T11:17:32;20.10;;;13.07;;
24745;SDS011;12845;52.042;6.838;2022-10-31T11:20:03;21.80;;;12.70;;
24745;SDS011;12845;52.042;6.838;2022-10-31T11:22:29;21.35;;;12.63;;
24745;SDS011;12845;52.042;6.838;2022-10-31T11:24:55;22.05;;;13.25;;
24745;SDS011;12845;52.042;6.838;2022-10-31T11:27:21;24.10;;;13.40;;
24745;SDS011;12845;52.042;6.838;2022-10-31T11:29:49;24.98;;;14.35;;
24745;SDS011;12845;52.042;6.838;2022-10-31T11:32:21;22.25;;;13.48;;
24745;SDS011;12845;52.042;6.838;2022-10-31T11:34:50;27.98;;;15.07;;
24745;SDS011;12845;52.042;6.838;2022-10-31T11:37:20;27.95;;;15.88;;
24745;SDS011;12845;52.042;6.838;2022-10-31T11:39:50;24.23;;;15.85;;
24745;SDS011;12845;52.042;6.838;2022-10-31T11:42:29;27.00;;;16.15;;
24745;SDS011;12845;52.042;6.838;2022-10-31T11:45:02;27.30;;;15.90;;
24745;SDS011;12845;52.042;6.838;2022-10-31T11:47:40;25.55;;;16.08;;
24745;SDS011;12845;52.042;6.838;2022-10-31T11:50:09;32.00;;;16.00;;
24745;SDS011;12845;52.042;6.838;2022-10-31T11:52:37;25.27;;;15.63;;
24745;SDS011;12845;52.042;6.838;2022-10-31T11:57:56;31.83;;;14.77;;
24745;SDS011;12845;52.042;6.838;2022-10-31T12:00:26;25.95;;;16.30;;
24745;SDS011;12845;52.042;6.838;2022-10-31T12:03:03;28.55;;;16.55;;
24745;SDS011;12845;52.042;6.838;2022-10-31T12:05:35;28.88;;;15.90;;
24745;SDS011;12845;52.042;6.838;2022-10-31T12:08:04;29.80;;;16.25;;
24745;SDS011;12845;52.042;6.838;2022-10-31T12:10:35;27.00;;;16.30;;
24745;SDS011;12845;52.042;6.838;2022-10-31T12:15:32;30.27;;;17.47;;
24745;SDS011;12845;52.042;6.838;2022-10-31T12:26:34;37.17;;;18.52;;
24745;SDS011;12845;52.042;6.838;2022-10-31T12:32:38;36.50;;;19.23;;
24745;SDS011;12845;52.042;6.838;2022-10-31T12:40:57;38.13;;;21.20;;
24745;SDS011;12845;52.042;6.838;2022-10-31T12:54:55;38.92;;;22.05;;
24745;SDS011;12845;52.042;6.838;2022-10-31T13:00:02;37.67;;;21.95;;
24745;SDS011;12845;52.042;6.838;2022-10-31T13:02:52;37.75;;;21.08;;
24745;SDS011;12845;52.042;6.838;2022-10-31T13:05:24;36.20;;;19.52;;
24745;SDS011;12845;52.042;6.838;2022-10-31T13:10:39;38.30;;;20.92;;
24745;SDS011;12845;52.042;6.838;2022-10-31T13:13:12;35.53;;;20.88;;
24745;SDS011;12845;52.042;6.838;2022-10-31T13:15:50;36.75;;;21.23;;
24745;SDS011;12845;52.042;6.838;2022-10-31T13:18:26;36.83;;;20.17;;
24745;SDS011;12845;52.042;6.838;2022-10-31T13:20:55;36.30;;;20.52;;
24745;SDS011;12845;52.042;6.838;2022-10-31T13:23:33;36.50;;;20.17;;
24745;SDS011;12845;52.042;6.838;2022-10-31T13:26:11;35.15;;;20.20;;
24745;SDS011;12845;52.042;6.838;2022-10-31T13:28:45;34.28;;;20.08;;
24745;SDS011;12845;52.042;6.838;2022-10-31T13:31:13;36.50;;;19.73;;
24745;SDS011;12845;52.042;6.838;2022-10-31T13:33:40;36.13;;;20.33;;
24745;SDS011;12845;52.042;6.838;2022-10-31T13:39:02;34.13;;;20.13;;
24745;SDS011;12845;52.042;6.838;2022-10-31T13:41:46;31.73;;;19.55;;
24745;SDS011;12845;52.042;6.838;2022-10-31T13:44:28;35.13;;;20.10;;
24745;SDS011;12845;52.042;6.838;2022-10-31T13:46:55;34.92;;;20.33;;
24745;SDS011;12845;52.042;6.838;2022-10-31T13:54:34;35.30;;;19.90;;
24745;SDS011;12845;52.042;6.838;2022-10-31T13:57:01;34.58;;;21.75;;
24745;SDS011;12845;52.042;6.838;2022-10-31T13:59:28;36.25;;;20.17;;
24745;SDS011;12845;52.042;6.838;2022-10-31T14:02:00;39.03;;;22.67;;
24745;SDS011;12845;52.042;6.838;2022-10-31T14:04:36;35.42;;;23.50;;
24745;SDS011;12845;52.042;6.838;2022-10-31T14:07:10;38.10;;;23.25;;
24745;SDS011;12845;52.042;6.838;2022-10-31T14:09:38;35.13;;;21.65;;
24745;SDS011;12845;52.042;6.838;2022-10-31T14:12:07;42.63;;;23.08;;
24745;SDS011;12845;52.042;6.838;2022-10-31T14:14:47;37.22;;;23.67;;
24745;SDS011;12845;52.042;6.838;2022-10-31T14:17:19;41.17;;;25.13;;
24745;SDS011;12845;52.042;6.838;2022-10-31T14:19:57;37.28;;;23.25;;
24745;SDS011;12845;52.042;6.838;2022-10-31T14:22:28;42.75;;;24.25;;
24745;SDS011;12845;52.042;6.838;2022-10-31T14:24:55;41.17;;;23.33;;
24745;SDS011;12845;52.042;6.838;2022-10-31T14:29:48;39.33;;;25.15;;
24745;SDS011;12845;52.042;6.838;2022-10-31T14:34:53;37.45;;;23.58;;
24745;SDS011;12845;52.042;6.838;2022-10-31T14:37:32;42.72;;;26.23;;
24745;SDS011;12845;52.042;6.838;2022-10-31T14:51:38;39.50;;;24.38;;
24745;SDS011;12845;52.042;6.838;2022-10-31T14:54:07;45.33;;;25.42;;
24745;SDS011;12845;52.042;6.838;2022-10-31T14:59:07;38.70;;;24.90;;
24745;SDS011;12845;52.042;6.838;2022-10-31T15:01:39;46.20;;;26.30;;
24745;SDS011;12845;52.042;6.838;2022-10-31T15:04:15;45.03;;;26.30;;
24745;SDS011;12845;52.042;6.838;2022-10-31T15:06:49;49.03;;;28.70;;
24745;SDS011;12845;52.042;6.838;2022-10-31T15:09:25;39.92;;;23.35;;
24745;SDS011;12845;52.042;6.838;2022-10-31T15:11:53;44.88;;;27.98;;
24745;SDS011;12845;52.042;6.838;2022-10-31T15:14:23;45.65;;;27.58;;
24745;SDS011;12845;52.042;6.838;2022-10-31T15:16:48;45.05;;;24.85;;
24745;SDS011;12845;52.042;6.838;2022-10-31T15:19:16;43.90;;;26.95;;
24745;SDS011;12845;52.042;6.838;2022-10-31T15:21:46;45.72;;;25.15;;
24745;SDS011;12845;52.042;6.838;2022-10-31T15:24:14;54.65;;;28.17;;
24745;SDS011;12845;52.042;6.838;2022-10-31T15:26:50;44.25;;;26.92;;
24745;SDS011;12845;52.042;6.838;2022-10-31T15:29:21;45.38;;;25.90;;
24745;SDS011;12845;52.042;6.838;2022-10-31T15:31:58;40.83;;;25.50;;
24745;SDS011;12845;52.042;6.838;2022-10-31T15:37:14;45.25;;;26.17;;
24745;SDS011;12845;52.042;6.838;2022-10-31T15:39:39;40.88;;;24.33;;
24745;SDS011;12845;52.042;6.838;2022-10-31T15:42:13;45.67;;;25.77;;
24745;SDS011;12845;52.042;6.838;2022-10-31T15:44:44;44.08;;;26.50;;
24745;SDS011;12845;52.042;6.838;2022-10-31T15:47:18;42.28;;;22.65;;
24745;SDS011;12845;52.042;6.838;2022-10-31T15:49:47;40.05;;;24.33;;
24745;SDS011;12845;52.042;6.838;2022-10-31T15:55:03;42.28;;;23.33;;
24745;SDS011;12845;52.042;6.838;2022-10-31T15:57:41;40.63;;;23.45;;
24745;SDS011;12845;52.042;6.838;2022-10-31T16:00:28;40.75;;;23.35;;
24745;SDS011;12845;52.042;6.838;2022-10-31T16:03:40;39.05;;;23.30;;
24745;SDS011;12845;52.042;6.838;2022-10-31T16:05:53;40.13;;;22.38;;
24745;SDS011;12845;52.042;6.838;2022-10-31T16:10:56;43.80;;;21.92;;
24745;SDS011;12845;52.042;6.838;2022-10-31T16:13:30;39.13;;;22.50;;
24745;SDS011;12845;52.042;6.838;2022-10-31T16:16:11;45.30;;;25.00;;
24745;SDS011;12845;52.042;6.838;2022-10-31T16:18:38;42.53;;;23.85;;
24745;SDS011;12845;52.042;6.838;2022-10-31T16:21:06;41.47;;;22.90;;
24745;SDS011;12845;52.042;6.838;2022-10-31T16:23:32;42.20;;;24.85;;
24745;SDS011;12845;52.042;6.838;2022-10-31T16:25:58;40.92;;;24.00;;
24745;SDS011;12845;52.042;6.838;2022-10-31T16:28:24;45.30;;;25.27;;
24745;SDS011;12845;52.042;6.838;2022-10-31T16:30:52;44.75;;;24.33;;
24745;SDS011;12845;52.042;6.838;2022-10-31T16:33:22;51.25;;;25.65;;
24745;SDS011;12845;52.042;6.838;2022-10-31T16:35:51;41.50;;;25.40;;
24745;SDS011;12845;52.042;6.838;2022-10-31T16:38:16;45.38;;;24.33;;
24745;SDS011;12845;52.042;6.838;2022-10-31T16:40:42;48.00;;;26.43;;
24745;SDS011;12845;52.042;6.838;2022-10-31T16:43:08;45.30;;;25.58;;
24745;SDS011;12845;52.042;6.838;2022-10-31T16:45:34;47.22;;;26.85;;
24745;SDS011;12845;52.042;6.838;2022-10-31T16:48:04;47.70;;;27.25;;
24745;SDS011;12845;52.042;6.838;2022-10-31T16:50:31;46.53;;;25.08;;
24745;SDS011;12845;52.042;6.838;2022-10-31T16:52:57;46.15;;;26.02;;
24745;SDS011;12845;52.042;6.838;2022-10-31T16:55:23;45.83;;;26.85;;
24745;SDS011;12845;52.042;6.838;2022-10-31T16:57:49;48.50;;;27.55;;
24745;SDS011;12845;52.042;6.838;2022-10-31T17:00:18;52.47;;;27.23;;
24745;SDS011;12845;52.042;6.838;2022-10-31T17:02:44;49.20;;;28.23;;
24745;SDS011;12845;52.042;6.838;2022-10-31T17:05:11;48.33;;;27.45;;